Time;durP1;ratioP1;P1;durP2;ratioP2;P2;SDS_P1;SDS_P2;PMS_P1;PMS_P2;Temp;Humidity;BMP_temperature;BMP_pressure;BME280_temperature;BME280_humidity;BME280_pressure;Samples;Min_cycle;Max_cycle;Signal;HPM_P1;HPM_P2
2022/08/22 00:00:15;;;;;;;;;;;;;;;24.51;73.06;100687.84;5050892;28;2210;-46
2022/08/22 00:03:00;;;;;;;;;;;;;;;24.48;73.30;100678.28;5052240;28;1331;-43
2022/08/22 00:05:53;;;;;;;;;;;;;;;24.44;73.30;100689.28;5048119;28;1208;-48
2022/08/22 00:08:29;;;;;;;;;;;;;;;24.50;73.48;100690.63;5050560;28;1286;-46
2022/08/22 00:10:59;;;;;;;;;;;;;;;24.52;73.05;100683.34;5050905;28;1274;-46
2022/08/22 00:13:25;;;;;;;;;;;;;;;24.65;72.83;100692.03;5031913;28;1260;-43
2022/08/22 00:16:00;;;;;;;;;;;;;;;24.68;72.85;100689.13;5031870;28;1974;-44
2022/08/22 00:18:33;;;;;;;;;;;;;;;24.77;73.12;100686.53;5032577;28;1268;-45
2022/08/22 00:21:12;;;;;;;;;;;;;;;24.71;73.13;100695.06;5034159;28;1096;-47
2022/08/22 00:23:41;;;;;;;;;;;;;;;24.65;73.88;100686.72;5033956;28;1272;-47
2022/08/22 00:26:08;;;;;;;;;;;;;;;24.63;74.25;100691.31;5034005;28;989;-46
2022/08/22 00:28:37;;;;;;;;;;;;;;;24.70;74.12;100689.84;5033880;28;1194;-44
2022/08/22 00:31:23;;;;;;;;;;;;;;;24.64;74.77;100683.19;5033964;28;1049;-43
2022/08/22 00:34:05;;;;;;;;;;;;;;;24.72;74.50;100693.19;5033659;28;1196;-44
2022/08/22 00:36:50;;;;;;;;;;;;;;;24.74;74.36;100688.63;5033721;28;1973;-44
2022/08/22 00:39:20;;;;;;;;;;;;;;;24.77;75.11;100685.69;5033874;28;1193;-49
2022/08/22 00:41:49;;;;;;;;;;;;;;;24.79;74.95;100681.94;5033695;28;1075;-49
2022/08/22 00:44:24;;;;;;;;;;;;;;;24.80;74.81;100677.44;5032376;28;1583;-46
2022/08/22 00:46:51;;;;;;;;;;;;;;;24.78;75.06;100677.56;5032513;28;1049;-46
2022/08/22 00:49:37;;;;;;;;;;;;;;;24.74;74.77;100670.81;5031863;28;1185;-44
2022/08/22 00:52:15;;;;;;;;;;;;;;;24.66;74.57;100675.91;5032461;28;1028;-45
2022/08/22 00:55:14;;;;;;;;;;;;;;;24.64;74.59;100661.91;5032325;28;1456;-49
2022/08/22 00:57:43;;;;;;;;;;;;;;;24.54;75.19;100668.94;5019853;28;1182;-48
2022/08/22 01:00:13;;;;;;;;;;;;;;;24.51;75.04;100663.88;5033138;28;1138;-44
2022/08/22 01:02:58;;;;;;;;;;;;;;;24.50;75.62;100661.34;5033502;28;1256;-45
2022/08/22 01:05:43;;;;;;;;;;;;;;;24.43;75.38;100659.19;5033415;28;1189;-43
2022/08/22 01:08:28;;;;;;;;;;;;;;;24.48;75.31;100658.78;5033416;28;1173;-46
2022/08/22 01:11:10;;;;;;;;;;;;;;;24.40;75.69;100656.78;5033877;28;1324;-47
2022/08/22 01:13:36;;;;;;;;;;;;;;;24.52;75.28;100649.59;5032578;28;1363;-44
2022/08/22 01:16:21;;;;;;;;;;;;;;;24.40;75.74;100654.13;5033058;28;1989;-48
2022/08/22 01:19:00;;;;;;;;;;;;;;;24.39;75.92;100660.41;5031947;28;1288;-48
2022/08/22 01:21:27;;;;;;;;;;;;;;;24.35;76.21;100652.78;5031476;28;1104;-45
2022/08/22 01:24:00;;;;;;;;;;;;;;;24.37;76.16;100656.19;5035417;28;1313;-50
2022/08/22 01:26:45;;;;;;;;;;;;;;;24.34;75.96;100657.28;5048673;28;1045;-48
2022/08/22 01:29:34;;;;;;;;;;;;;;;24.30;76.13;100661.16;5030970;28;1500;-46
2022/08/22 01:32:09;;;;;;;;;;;;;;;24.23;76.46;100669.75;5030400;28;1195;-44
2022/08/22 01:34:44;;;;;;;;;;;;;;;24.20;76.75;100660.19;5051888;28;1395;-48
2022/08/22 01:37:29;;;;;;;;;;;;;;;24.23;76.72;100659.09;5052580;28;1910;-43
2022/08/22 01:39:56;;;;;;;;;;;;;;;24.26;76.72;100648.19;5052826;28;1136;-47
2022/08/22 01:42:41;;;;;;;;;;;;;;;24.23;76.84;100651.13;5051846;28;1264;-45
2022/08/22 01:45:13;;;;;;;;;;;;;;;24.23;76.79;100646.66;5052923;28;1100;-46
2022/08/22 01:47:58;;;;;;;;;;;;;;;24.29;76.87;100651.47;5033820;28;1262;-47
2022/08/22 01:50:34;;;;;;;;;;;;;;;24.34;76.88;100645.78;5032768;28;1285;-44
2022/08/22 01:53:07;;;;;;;;;;;;;;;24.43;76.44;100648.53;5032726;28;1214;-42
2022/08/22 01:55:37;;;;;;;;;;;;;;;24.47;76.21;100641.13;5032457;28;1923;-42
2022/08/22 01:58:14;;;;;;;;;;;;;;;24.51;76.15;100647.03;5032556;28;1367;-42
2022/08/22 02:01:09;;;;;;;;;;;;;;;24.54;75.99;100646.78;5032541;28;1024;-42
2022/08/22 02:03:42;;;;;;;;;;;;;;;24.66;75.56;100640.44;5031888;28;1278;-43
2022/08/22 02:06:12;;;;;;;;;;;;;;;24.53;75.93;100643.28;5032674;28;1100;-44
2022/08/22 02:08:49;;;;;;;;;;;;;;;24.49;75.72;100644.53;5032251;28;1324;-43
2022/08/22 02:11:51;;;;;;;;;;;;;;;24.41;76.18;100636.28;5031897;28;1115;-45
2022/08/22 02:14:20;;;;;;;;;;;;;;;24.41;76.22;100634.50;5029992;28;1628;-44
2022/08/22 02:16:49;;;;;;;;;;;;;;;24.38;76.17;100642.72;5034581;28;1989;-45
2022/08/22 02:19:16;;;;;;;;;;;;;;;24.46;76.42;100650.94;5036485;28;1268;-42
2022/08/22 02:22:01;;;;;;;;;;;;;;;24.32;76.35;100648.56;5036664;28;1025;-48
2022/08/22 02:24:45;;;;;;;;;;;;;;;24.29;76.28;100643.47;5036570;28;1616;-46
2022/08/22 02:27:23;;;;;;;;;;;;;;;24.27;76.07;100642.78;5036456;28;1004;-44
2022/08/22 02:30:08;;;;;;;;;;;;;;;24.35;75.92;100639.47;5036371;28;1080;-43
2022/08/22 02:32:44;;;;;;;;;;;;;;;24.27;75.95;100639.25;5035748;28;1264;-45
2022/08/22 02:35:16;;;;;;;;;;;;;;;24.25;76.02;100639.41;5036362;28;1078;-44
2022/08/22 02:37:46;;;;;;;;;;;;;;;24.25;76.01;100643.88;5036087;28;1975;-44
2022/08/22 02:40:26;;;;;;;;;;;;;;;24.28;75.93;100631.16;5036524;28;1167;-43
2022/08/22 02:42:55;;;;;;;;;;;;;;;24.40;75.71;100626.63;5036051;28;1331;-44
2022/08/22 02:45:25;;;;;;;;;;;;;;;24.43;75.50;100624.56;5035747;28;1515;-43
2022/08/22 02:48:10;;;;;;;;;;;;;;;24.37;75.43;100640.22;5035953;28;1181;-42
2022/08/22 02:50:55;;;;;;;;;;;;;;;24.40;75.74;100631.97;5035761;28;1114;-41
2022/08/22 02:53:31;;;;;;;;;;;;;;;24.40;75.25;100632.81;5036014;28;1173;-46
2022/08/22 02:56:13;;;;;;;;;;;;;;;24.42;74.96;100641.50;5035906;28;1907;-47
2022/08/22 02:58:46;;;;;;;;;;;;;;;24.39;75.21;100633.78;5035575;28;1190;-43
2022/08/22 03:01:16;;;;;;;;;;;;;;;24.39;75.02;100628.47;5034759;28;1096;-42
2022/08/22 03:03:45;;;;;;;;;;;;;;;24.31;75.02;100624.75;5035460;28;1264;-42
2022/08/22 03:06:48;;;;;;;;;;;;;;;24.29;75.12;100627.50;5035445;28;986;-42
2022/08/22 03:09:14;;;;;;;;;;;;;;;24.29;75.01;100622.19;5032800;28;1355;-45
2022/08/22 03:11:44;;;;;;;;;;;;;;;24.26;75.40;100617.13;5033991;28;1111;-43
2022/08/22 03:14:28;;;;;;;;;;;;;;;24.22;75.59;100618.34;5033631;28;1442;-43
2022/08/22 03:17:07;;;;;;;;;;;;;;;24.25;75.41;100620.78;5033299;28;1910;-43
2022/08/22 03:19:40;;;;;;;;;;;;;;;24.28;75.28;100619.66;5033336;28;1340;-45
2022/08/22 03:22:40;;;;;;;;;;;;;;;24.28;75.35;100623.19;5033293;28;1032;-44
2022/08/22 03:25:25;;;;;;;;;;;;;;;24.34;74.99;100614.69;5031098;28;1152;-41
2022/08/22 03:27:58;;;;;;;;;;;;;;;24.41;74.55;100601.69;5032701;28;1718;-43
2022/08/22 03:30:32;;;;;;;;;;;;;;;24.43;75.07;100600.63;5035150;28;1159;-42
2022/08/22 03:33:07;;;;;;;;;;;;;;;24.35;75.35;100589.75;5035040;28;1177;-42
2022/08/22 03:35:34;;;;;;;;;;;;;;;24.35;75.04;100599.53;5035004;28;1020;-45
2022/08/22 03:38:27;;;;;;;;;;;;;;;24.36;74.97;100595.91;5034578;28;1906;-43
2022/08/22 03:40:56;;;;;;;;;;;;;;;24.36;74.06;100594.09;5033118;28;1135;-45
2022/08/22 03:43:23;;;;;;;;;;;;;;;24.31;74.27;100595.47;5034665;28;1193;-47
2022/08/22 03:46:13;;;;;;;;;;;;;;;24.30;74.28;100596.41;5034685;28;1068;-44
2022/08/22 03:49:02;;;;;;;;;;;;;;;24.26;74.54;100605.63;5034707;28;1312;-45
2022/08/22 03:51:28;;;;;;;;;;;;;;;24.31;74.37;100598.13;5034522;28;1049;-43
2022/08/22 03:54:04;;;;;;;;;;;;;;;24.33;74.30;100601.50;5034504;28;1574;-43
2022/08/22 03:56:50;;;;;;;;;;;;;;;24.33;74.35;100606.81;5034847;28;1910;-43
2022/08/22 03:59:38;;;;;;;;;;;;;;;24.38;73.75;100600.13;5034741;28;1273;-46
2022/08/22 04:02:08;;;;;;;;;;;;;;;24.37;73.50;100603.78;5035002;28;1052;-46
2022/08/22 04:05:14;;;;;;;;;;;;;;;24.37;73.41;100598.47;5034890;28;2264;-43
2022/08/22 04:08:00;;;;;;;;;;;;;;;24.57;72.63;100598.59;5034357;28;1248;-46
2022/08/22 04:10:46;;;;;;;;;;;;;;;24.54;72.63;100593.53;5034011;28;1176;-43
2022/08/22 04:13:12;;;;;;;;;;;;;;;24.48;73.26;100594.91;5034195;28;1201;-44
2022/08/22 04:15:57;;;;;;;;;;;;;;;24.45;73.28;100601.31;5034320;28;1079;-45
2022/08/22 04:18:27;;;;;;;;;;;;;;;24.40;73.48;100597.34;5034495;28;1205;-44
2022/08/22 04:21:15;;;;;;;;;;;;;;;24.36;73.35;100607.41;5034251;28;1040;-45
2022/08/22 04:23:57;;;;;;;;;;;;;;;24.36;73.72;100602.09;5034311;28;1390;-42
2022/08/22 04:26:32;;;;;;;;;;;;;;;24.39;73.41;100599.16;5034198;28;762;-46
2022/08/22 04:29:06;;;;;;;;;;;;;;;24.35;73.86;100605.72;5034138;28;1723;-43
2022/08/22 04:31:40;;;;;;;;;;;;;;;24.39;73.27;100595.66;5033742;28;640;-47
2022/08/22 04:34:28;;;;;;;;;;;;;;;24.39;73.31;100600.97;5034014;28;1370;-45
2022/08/22 04:37:08;;;;;;;;;;;;;;;24.37;73.60;100602.94;5033776;28;1915;-42
2022/08/22 04:39:44;;;;;;;;;;;;;;;24.50;73.14;100597.44;5033024;28;1280;-42
2022/08/22 04:42:21;;;;;;;;;;;;;;;24.44;73.77;100604.94;5033509;28;640;-44
2022/08/22 04:45:10;;;;;;;;;;;;;;;24.47;74.02;100609.16;5033742;28;1231;-51
2022/08/22 04:47:40;;;;;;;;;;;;;;;24.60;73.39;100615.16;5033673;28;1344;-42
2022/08/22 04:50:12;;;;;;;;;;;;;;;24.75;73.18;100615.69;5033777;28;1049;-47
2022/08/22 04:52:44;;;;;;;;;;;;;;;24.52;72.96;100611.47;5033323;28;1387;-47
2022/08/22 04:55:14;;;;;;;;;;;;;;;24.45;73.18;100611.97;5032350;28;1626;-47
2022/08/22 04:58:04;;;;;;;;;;;;;;;24.46;72.90;100624.31;5033347;28;2005;-43
2022/08/22 05:00:38;;;;;;;;;;;;;;;24.58;72.67;100610.94;5033173;28;1227;-44
2022/08/22 05:03:08;;;;;;;;;;;;;;;24.55;72.29;100609.41;5032321;28;1232;-45
2022/08/22 05:05:37;;;;;;;;;;;;;;;24.73;71.90;100607.84;5033367;28;1028;-50
2022/08/22 05:08:06;;;;;;;;;;;;;;;24.61;72.37;100611.53;5033353;28;1268;-42
2022/08/22 05:10:39;;;;;;;;;;;;;;;24.58;72.36;100611.81;5034746;28;1616;-43
2022/08/22 05:13:09;;;;;;;;;;;;;;;24.68;72.29;100614.53;5033431;28;1298;-44
2022/08/22 05:15:38;;;;;;;;;;;;;;;24.45;71.87;100621.78;5033109;28;1049;-44
2022/08/22 05:18:08;;;;;;;;;;;;;;;24.36;72.43;100619.88;5041518;28;1915;-41
2022/08/22 05:20:37;;;;;;;;;;;;;;;24.23;72.55;100617.38;5033156;28;1072;-45
2022/08/22 05:23:15;;;;;;;;;;;;;;;24.20;72.52;100619.44;5033323;28;1208;-44
2022/08/22 05:25:44;;;;;;;;;;;;;;;24.16;72.32;100616.19;5033328;28;1080;-45
2022/08/22 05:28:14;;;;;;;;;;;;;;;24.15;72.49;100621.63;5032720;28;1253;-43
2022/08/22 05:30:42;;;;;;;;;;;;;;;24.17;71.98;100627.66;5033045;28;1112;-44
2022/08/22 05:33:29;;;;;;;;;;;;;;;24.16;72.11;100633.97;5032956;28;1170;-42
2022/08/22 05:36:06;;;;;;;;;;;;;;;24.15;71.98;100630.47;5032794;28;654;-44
2022/08/22 05:38:36;;;;;;;;;;;;;;;24.03;72.22;100635.91;5032875;28;1910;-42
2022/08/22 05:41:05;;;;;;;;;;;;;;;23.89;72.86;100650.31;5032945;28;1032;-43
2022/08/22 05:43:35;;;;;;;;;;;;;;;23.90;73.62;100652.00;5032741;28;1268;-42
2022/08/22 05:46:04;;;;;;;;;;;;;;;24.05;73.46;100648.09;5032840;28;1057;-41
2022/08/22 05:48:44;;;;;;;;;;;;;;;24.06;73.35;100646.28;5032388;28;1268;-42
2022/08/22 05:51:17;;;;;;;;;;;;;;;24.15;72.85;100653.56;5032687;28;1130;-45
2022/08/22 05:53:47;;;;;;;;;;;;;;;24.20;72.74;100652.22;5032613;28;1386;-42
2022/08/22 05:56:20;;;;;;;;;;;;;;;24.14;72.80;100658.03;5031836;28;1000;-50
2022/08/22 05:58:50;;;;;;;;;;;;;;;24.12;72.64;100657.31;5032167;28;1249;-48
2022/08/22 06:01:37;;;;;;;;;;;;;;;24.15;71.88;100665.06;5032553;28;1013;-44
2022/08/22 06:04:23;;;;;;;;;;;;;;;24.31;71.33;100657.53;5032401;28;1268;-44
2022/08/22 06:06:59;;;;;;;;;;;;;;;24.35;71.61;100655.44;5032659;28;1116;-45
2022/08/22 06:09:35;;;;;;;;;;;;;;;24.47;71.13;100652.63;5032536;28;1336;-46
2022/08/22 06:12:05;;;;;;;;;;;;;;;24.56;70.54;100655.50;5047841;28;1036;-46
2022/08/22 06:14:42;;;;;;;;;;;;;;;24.60;70.64;100662.25;5032298;28;1340;-45
2022/08/22 06:17:12;;;;;;;;;;;;;;;24.56;70.10;100656.38;5032857;28;1977;-43
2022/08/22 06:19:40;;;;;;;;;;;;;;;24.48;70.31;100645.47;5032323;28;1320;-44
2022/08/22 06:22:08;;;;;;;;;;;;;;;24.70;69.33;100637.41;5032341;28;1662;-45
2022/08/22 06:24:38;;;;;;;;;;;;;;;24.64;69.47;100639.75;5032201;28;1300;-43
2022/08/22 06:27:07;;;;;;;;;;;;;;;24.73;69.63;100652.28;5032495;28;1048;-44
2022/08/22 06:29:47;;;;;;;;;;;;;;;24.79;69.07;100649.09;5032650;28;1280;-43
2022/08/22 06:32:22;;;;;;;;;;;;;;;25.10;68.53;100653.59;5032539;28;1716;-45
2022/08/22 06:35:23;;;;;;;;;;;;;;;25.14;68.91;100652.31;5032799;28;2220;-44
2022/08/22 06:37:52;;;;;;;;;;;;;;;25.23;68.68;100661.38;5032348;28;1981;-44
2022/08/22 06:40:18;;;;;;;;;;;;;;;25.23;69.31;100664.88;5032561;28;1264;-44
2022/08/22 06:42:49;;;;;;;;;;;;;;;25.24;69.43;100669.22;5032204;28;1315;-47
2022/08/22 06:45:20;;;;;;;;;;;;;;;25.29;70.44;100667.00;5032340;28;1223;-50
2022/08/22 06:47:47;;;;;;;;;;;;;;;25.10;70.84;100668.72;5032218;28;1272;-47
2022/08/22 06:50:18;;;;;;;;;;;;;;;25.13;70.86;100668.47;5033265;28;1182;-47
2022/08/22 06:52:48;;;;;;;;;;;;;;;25.33;71.38;100665.78;5050775;28;1260;-45
2022/08/22 06:55:15;;;;;;;;;;;;;;;25.17;72.98;100678.72;5051364;28;1184;-48
2022/08/22 06:57:45;;;;;;;;;;;;;;;25.41;71.61;100673.97;5051777;28;1991;-43
2022/08/22 07:00:13;;;;;;;;;;;;;;;25.39;71.95;100673.25;5051735;28;1083;-43
2022/08/22 07:02:42;;;;;;;;;;;;;;;24.94;73.71;100679.81;5053782;28;1248;-47
2022/08/22 07:05:13;;;;;;;;;;;;;;;25.06;74.19;100684.13;5055746;28;1045;-45
2022/08/22 07:07:40;;;;;;;;;;;;;;;25.13;73.51;100682.63;5055719;28;1375;-42
2022/08/22 07:10:10;;;;;;;;;;;;;;;25.32;72.85;100677.41;5054088;28;899;-44
2022/08/22 07:12:37;;;;;;;;;;;;;;;25.51;72.51;100680.22;5054309;28;1205;-48
2022/08/22 07:15:34;;;;;;;;;;;;;;;25.99;68.77;100683.09;5055056;28;1056;-45
2022/08/22 07:18:14;;;;;;;;;;;;;;;25.46;71.56;100686.91;5054300;28;1915;-45
2022/08/22 07:20:44;;;;;;;;;;;;;;;25.62;71.71;100683.81;5055544;28;1103;-43
2022/08/22 07:23:14;;;;;;;;;;;;;;;25.64;71.29;100685.34;5054371;28;1422;-44
2022/08/22 07:25:50;;;;;;;;;;;;;;;25.58;71.88;100687.69;5055320;28;1096;-46
2022/08/22 07:28:23;;;;;;;;;;;;;;;25.74;71.95;100685.41;5054867;28;1343;-46
2022/08/22 07:31:36;;;;;;;;;;;;;;;25.62;72.18;100689.13;5053330;28;2346;-43
2022/08/22 07:34:22;;;;;;;;;;;;;;;25.89;72.86;100692.06;5053669;28;1498;-44
2022/08/22 07:36:53;;;;;;;;;;;;;;;26.00;70.73;100681.28;5054480;28;1965;-47
2022/08/22 07:39:27;;;;;;;;;;;;;;;26.04;70.87;100685.38;5054906;28;1414;-42
2022/08/22 07:41:59;;;;;;;;;;;;;;;26.01;69.32;100693.66;5054659;28;1088;-50
2022/08/22 07:44:32;;;;;;;;;;;;;;;26.04;69.67;100680.03;5054455;28;1286;-51
2022/08/22 07:47:08;;;;;;;;;;;;;;;26.03;69.54;100686.34;5054614;28;1048;-52
2022/08/22 07:49:37;;;;;;;;;;;;;;;25.99;69.71;100684.94;5054438;28;1425;-51
2022/08/22 07:52:15;;;;;;;;;;;;;;;25.99;69.49;100682.28;5053610;28;1781;-47
2022/08/22 07:54:49;;;;;;;;;;;;;;;25.99;69.84;100690.28;5053887;28;1329;-45
2022/08/22 07:57:21;;;;;;;;;;;;;;;25.84;68.89;100678.28;5054179;28;1993;-51
2022/08/22 07:59:51;;;;;;;;;;;;;;;26.04;68.49;100675.53;5053745;28;1147;-49
2022/08/22 08:02:19;;;;;;;;;;;;;;;26.14;67.78;100680.91;5066040;28;1324;-50
2022/08/22 08:04:47;;;;;;;;;;;;;;;26.06;68.78;100683.41;5059927;28;1371;-51
2022/08/22 08:07:16;;;;;;;;;;;;;;;25.77;65.22;100688.66;5053594;28;1349;-53
2022/08/22 08:09:52;;;;;;;;;;;;;;;25.79;65.40;100684.00;5053757;28;1025;-47
2022/08/22 08:12:31;;;;;;;;;;;;;;;25.95;65.66;100686.19;5052092;28;1260;-51
2022/08/22 08:14:58;;;;;;;;;;;;;;;26.10;65.98;100698.19;5052746;28;1065;-49
2022/08/22 08:17:26;;;;;;;;;;;;;;;26.09;65.85;100700.00;5052927;28;1902;-56
2022/08/22 08:20:01;;;;;;;;;;;;;;;26.06;66.35;100694.06;5053179;28;1185;-51
2022/08/22 08:22:28;;;;;;;;;;;;;;;26.12;66.88;100698.03;5053903;28;1300;-53
2022/08/22 08:24:57;;;;;;;;;;;;;;;26.36;66.39;100707.41;5060034;28;1576;-53
2022/08/22 08:30:24;;;;;;;;;;;;;;;25.90;66.54;100704.44;5050727;28;1149;-50
2022/08/22 08:32:54;;;;;;;;;;;;;;;26.00;66.29;100710.63;5046705;28;1569;-52
2022/08/22 08:35:46;;;;;;;;;;;;;;;26.10;66.15;100706.19;5051846;28;2118;-54
2022/08/22 08:38:49;;;;;;;;;;;;;;;26.31;64.22;100711.47;5051236;28;1906;-51
2022/08/22 08:41:45;;;;;;;;;;;;;;;26.39;64.29;100692.91;5047301;28;1421;-46
2022/08/22 08:44:18;;;;;;;;;;;;;;;26.43;63.67;100703.22;5047567;28;1324;-52
2022/08/22 08:46:48;;;;;;;;;;;;;;;26.31;62.89;100715.00;5053068;28;1104;-52
2022/08/22 08:49:37;;;;;;;;;;;;;;;26.54;62.34;100711.09;5051234;28;1299;-52
2022/08/22 08:52:26;;;;;;;;;;;;;;;26.50;62.90;100699.00;5048023;28;2030;-53
2022/08/22 08:54:56;;;;;;;;;;;;;;;26.54;61.33;100704.91;5051165;28;1789;-49
2022/08/22 08:57:23;;;;;;;;;;;;;;;26.67;61.71;100700.13;5045341;28;1981;-52
2022/08/22 09:00:09;;;;;;;;;;;;;;;26.83;60.44;100704.97;5043349;28;1042;-47
2022/08/22 09:02:37;;;;;;;;;;;;;;;26.80;61.66;100705.25;5050506;28;1316;-45
2022/08/22 09:05:26;;;;;;;;;;;;;;;27.03;59.88;100702.13;5049551;28;1390;-53
2022/08/22 09:07:56;;;;;;;;;;;;;;;27.02;60.70;100699.63;5045472;28;1264;-53
2022/08/22 09:10:32;;;;;;;;;;;;;;;26.74;61.29;100703.09;5052069;28;1095;-49
2022/08/22 09:13:11;;;;;;;;;;;;;;;26.64;60.41;100711.09;5051774;28;1287;-52
2022/08/22 09:15:50;;;;;;;;;;;;;;;26.58;61.66;100712.50;5051902;28;1012;-50
2022/08/22 09:18:28;;;;;;;;;;;;;;;26.83;60.93;100716.50;5050547;28;1965;-48
2022/08/22 09:21:16;;;;;;;;;;;;;;;26.70;60.79;100715.03;5051712;28;1243;-52
2022/08/22 09:24:09;;;;;;;;;;;;;;;26.76;61.00;100722.50;5041988;28;1564;-48
2022/08/22 09:26:47;;;;;;;;;;;;;;;26.75;60.13;100721.66;5051188;28;1065;-52
2022/08/22 09:29:14;;;;;;;;;;;;;;;26.68;61.04;100717.03;5052327;28;1205;-52
2022/08/22 09:31:51;;;;;;;;;;;;;;;26.85;60.65;100713.69;5051895;28;1043;-48
2022/08/22 09:34:28;;;;;;;;;;;;;;;26.81;60.78;100721.13;5051294;28;1297;-48
2022/08/22 09:36:58;;;;;;;;;;;;;;;26.79;60.85;100715.06;5049683;28;1100;-51
2022/08/22 09:39:46;;;;;;;;;;;;;;;26.59;60.82;100714.22;5055054;28;1977;-53
2022/08/22 09:42:24;;;;;;;;;;;;;;;26.54;62.09;100716.44;5052505;28;1391;-52
2022/08/22 09:45:35;;;;;;;;;;;;;;;26.71;61.37;100708.72;5060594;28;1057;-51
2022/08/22 09:48:15;;;;;;;;;;;;;;;26.90;60.61;100716.78;5068544;28;1441;-53
2022/08/22 09:50:48;;;;;;;;;;;;;;;27.13;59.03;100708.34;5068090;28;1122;-52
2022/08/22 09:53:22;;;;;;;;;;;;;;;26.90;59.13;100698.09;5057888;28;1315;-49
2022/08/22 09:55:58;;;;;;;;;;;;;;;26.86;60.05;100710.88;5064432;28;1610;-53
2022/08/22 09:58:43;;;;;;;;;;;;;;;26.93;60.25;100708.50;5068973;28;1902;-53
2022/08/22 10:01:30;;;;;;;;;;;;;;;27.12;58.26;100703.09;5041343;28;1228;-52
2022/08/22 10:04:13;;;;;;;;;;;;;;;26.87;59.75;100709.88;5060688;28;2493;-50
2022/08/22 10:07:11;;;;;;;;;;;;;;;26.85;60.18;100705.66;5066910;28;1188;-55
2022/08/22 10:09:53;;;;;;;;;;;;;;;26.88;60.09;100705.38;5063278;28;1262;-49
2022/08/22 10:12:30;;;;;;;;;;;;;;;26.73;60.25;100706.75;5047399;28;1363;-51
2022/08/22 10:15:28;;;;;;;;;;;;;;;26.76;60.33;100701.97;5058017;28;1588;-56
2022/08/22 10:17:54;;;;;;;;;;;;;;;27.03;59.26;100698.63;5041878;28;1995;-52
2022/08/22 10:20:27;;;;;;;;;;;;;;;27.15;58.00;100701.00;5049512;28;1214;-53
2022/08/22 10:22:56;;;;;;;;;;;;;;;27.22;58.38;100700.44;5042028;28;1341;-51
2022/08/22 10:25:31;;;;;;;;;;;;;;;27.18;58.56;100702.53;5060898;28;1617;-49
2022/08/22 10:27:57;;;;;;;;;;;;;;;27.09;58.93;100703.41;5058527;28;1264;-45
2022/08/22 10:30:31;;;;;;;;;;;;;;;27.24;57.95;100709.16;5067276;28;1086;-50
2022/08/22 10:33:03;;;;;;;;;;;;;;;27.10;58.89;100711.28;5048623;28;1275;-46
2022/08/22 10:35:42;;;;;;;;;;;;;;;27.26;58.52;100702.69;5058349;28;1235;-51
2022/08/22 10:38:16;;;;;;;;;;;;;;;27.43;57.58;100704.66;5056324;28;1918;-50
2022/08/22 10:40:55;;;;;;;;;;;;;;;27.35;57.84;100701.81;5067489;28;1372;-49
2022/08/22 10:43:29;;;;;;;;;;;;;;;27.31;57.98;100700.41;5060734;28;1418;-51
2022/08/22 10:46:01;;;;;;;;;;;;;;;27.14;58.90;100698.47;5056905;28;1191;-46
2022/08/22 10:48:32;;;;;;;;;;;;;;;27.52;57.67;100694.91;5060644;28;1454;-48
2022/08/22 10:51:07;;;;;;;;;;;;;;;27.47;57.63;100694.50;5065653;28;1121;-51
2022/08/22 10:53:52;;;;;;;;;;;;;;;27.51;58.05;100691.38;5051420;28;1441;-49
2022/08/22 10:56:28;;;;;;;;;;;;;;;27.39;58.28;100697.84;5054736;28;1140;-50
2022/08/22 10:59:07;;;;;;;;;;;;;;;27.55;57.60;100698.13;5060257;28;1914;-49
2022/08/22 11:01:39;;;;;;;;;;;;;;;27.54;56.81;100704.47;5061535;28;1148;-49
2022/08/22 11:04:18;;;;;;;;;;;;;;;27.74;56.69;100701.75;5066435;28;1359;-49
2022/08/22 11:07:00;;;;;;;;;;;;;;;27.53;57.57;100705.47;5037909;28;1035;-55
2022/08/22 11:09:29;;;;;;;;;;;;;;;27.66;56.46;100699.81;5069626;28;1287;-51
2022/08/22 11:12:20;;;;;;;;;;;;;;;27.50;56.86;100700.41;5057764;28;1176;-54
2022/08/22 11:14:58;;;;;;;;;;;;;;;27.50;57.27;100696.88;5055198;28;1128;-55
2022/08/22 11:17:47;;;;;;;;;;;;;;;27.77;56.90;100690.75;5065324;28;1328;-54
2022/08/22 11:20:24;;;;;;;;;;;;;;;27.79;56.22;100689.59;5054447;28;1290;-52
2022/08/22 11:23:30;;;;;;;;;;;;;;;27.76;56.83;100694.41;5054921;28;1412;-56
2022/08/22 11:26:06;;;;;;;;;;;;;;;27.56;57.49;100694.47;5035114;28;1299;-47
2022/08/22 11:28:55;;;;;;;;;;;;;;;27.55;57.94;100681.22;5032148;28;1333;-53
2022/08/22 11:31:46;;;;;;;;;;;;;;;27.83;56.27;100684.78;5039226;28;1104;-51
2022/08/22 11:34:49;;;;;;;;;;;;;;;27.49;58.14;100681.81;5065665;28;1434;-48
2022/08/22 11:37:19;;;;;;;;;;;;;;;27.73;57.83;100676.81;5034064;28;1327;-46
2022/08/22 11:40:24;;;;;;;;;;;;;;;27.88;57.24;100682.50;5048246;28;3020;-44
2022/08/22 11:43:24;;;;;;;;;;;;;;;27.96;57.35;100674.59;5045316;28;1284;-45
2022/08/22 11:45:55;;;;;;;;;;;;;;;27.81;57.20;100674.25;5058710;28;1143;-46
2022/08/22 11:48:24;;;;;;;;;;;;;;;28.16;56.26;100670.84;5059723;28;1406;-46
2022/08/22 11:51:03;;;;;;;;;;;;;;;28.19;56.41;100673.22;5070998;28;1195;-44
2022/08/22 11:53:53;;;;;;;;;;;;;;;28.21;56.72;100657.84;5053856;28;2174;-48
2022/08/22 11:56:26;;;;;;;;;;;;;;;28.09;57.17;100662.56;5050474;28;1105;-50
2022/08/22 11:58:58;;;;;;;;;;;;;;;27.99;57.17;100658.25;5063196;28;1976;-52
2022/08/22 12:01:32;;;;;;;;;;;;;;;28.04;57.03;100659.50;5043390;28;895;-50
2022/08/22 12:04:08;;;;;;;;;;;;;;;28.03;57.68;100664.97;5065484;28;1370;-45
2022/08/22 12:06:38;;;;;;;;;;;;;;;27.96;58.40;100666.56;5066869;28;1049;-48
2022/08/22 12:09:11;;;;;;;;;;;;;;;28.00;58.09;100659.91;5066090;28;1299;-46
2022/08/22 12:11:56;;;;;;;;;;;;;;;27.83;58.12;100658.03;5067126;28;1072;-47
2022/08/22 12:14:37;;;;;;;;;;;;;;;28.06;55.99;100659.34;5072287;28;1320;-45
2022/08/22 12:17:08;;;;;;;;;;;;;;;28.01;57.09;100662.44;5072609;28;1634;-46
2022/08/22 12:19:54;;;;;;;;;;;;;;;28.31;55.02;100657.78;5042926;28;1907;-45
2022/08/22 12:22:59;;;;;;;;;;;;;;;28.15;55.76;100663.78;5047516;28;2199;-50
2022/08/22 12:25:29;;;;;;;;;;;;;;;28.14;56.04;100662.13;5053770;28;1017;-50
2022/08/22 12:28:15;;;;;;;;;;;;;;;28.19;56.04;100662.50;5053341;28;1205;-49
2022/08/22 12:30:58;;;;;;;;;;;;;;;28.21;55.83;100655.16;5054015;28;1057;-50
2022/08/22 12:33:44;;;;;;;;;;;;;;;28.19;55.32;100652.66;5063049;28;1388;-46
2022/08/22 12:36:13;;;;;;;;;;;;;;;28.09;56.27;100653.69;5073988;28;1168;-50
2022/08/22 12:38:55;;;;;;;;;;;;;;;28.16;56.44;100646.75;5071488;28;1977;-45
2022/08/22 12:41:47;;;;;;;;;;;;;;;27.99;56.32;100648.38;5046446;28;1164;-52
2022/08/22 12:44:32;;;;;;;;;;;;;;;28.20;56.31;100640.09;5053511;28;1367;-51
2022/08/22 12:47:14;;;;;;;;;;;;;;;28.27;55.75;100649.19;5034219;28;1227;-55
2022/08/22 12:49:45;;;;;;;;;;;;;;;28.19;55.48;100641.94;5048964;28;1382;-52
2022/08/22 12:52:30;;;;;;;;;;;;;;;28.14;56.65;100638.03;5052488;28;1217;-55
2022/08/22 12:55:01;;;;;;;;;;;;;;;28.18;56.36;100647.44;5057384;28;1439;-51
2022/08/22 12:57:40;;;;;;;;;;;;;;;28.18;56.97;100644.75;5052624;28;1284;-52
2022/08/22 13:00:29;;;;;;;;;;;;;;;28.10;57.01;100637.47;5045306;28;1977;-51
2022/08/22 13:02:57;;;;;;;;;;;;;;;28.36;56.30;100639.44;5052730;28;1213;-47
2022/08/22 13:05:27;;;;;;;;;;;;;;;28.21;55.99;100641.78;5053850;28;1414;-46
2022/08/22 13:07:59;;;;;;;;;;;;;;;28.28;54.88;100632.16;5052871;28;1225;-46
2022/08/22 13:10:47;;;;;;;;;;;;;;;28.14;55.77;100630.84;5045267;28;1584;-49
2022/08/22 13:13:24;;;;;;;;;;;;;;;28.08;57.04;100633.28;5056358;28;1267;-49
2022/08/22 13:16:14;;;;;;;;;;;;;;;28.15;55.70;100632.50;5067068;28;1113;-46
2022/08/22 13:18:51;;;;;;;;;;;;;;;28.30;55.12;100624.78;5046788;28;1979;-44
2022/08/22 13:21:22;;;;;;;;;;;;;;;28.20;55.67;100624.88;5064406;28;1126;-48
2022/08/22 13:23:54;;;;;;;;;;;;;;;28.11;55.82;100622.25;5052879;28;1355;-45
2022/08/22 13:26:22;;;;;;;;;;;;;;;28.19;55.28;100617.00;5051280;28;1080;-46
2022/08/22 13:29:04;;;;;;;;;;;;;;;28.29;54.60;100611.56;5052520;28;1312;-40
2022/08/22 13:31:53;;;;;;;;;;;;;;;28.33;54.65;100612.97;5047545;28;1758;-37
2022/08/22 13:34:38;;;;;;;;;;;;;;;28.41;54.27;100616.53;5051717;28;1320;-38
2022/08/22 13:37:20;;;;;;;;;;;;;;;28.11;54.96;100612.41;5054797;28;1068;-41
2022/08/22 13:39:53;;;;;;;;;;;;;;;28.33;54.65;100616.44;5056225;28;1902;-38
2022/08/22 13:42:21;;;;;;;;;;;;;;;28.56;53.80;100619.53;5051838;28;1287;-38